sensor_id;sensor_type;location;lat;lon;timestamp;pressure;altitude;pressure_sealevel;temperature;humidity
39897;BME280;25567;48.276;14.242;2022-07-29T00:02:24;98257.56;;;20.51;79.82
39897;BME280;25567;48.276;14.242;2022-07-29T00:04:51;98254.66;;;20.47;79.68
39897;BME280;25567;48.276;14.242;2022-07-29T00:07:17;98250.88;;;20.35;80.09
39897;BME280;25567;48.276;14.242;2022-07-29T00:09:44;98252.22;;;20.18;81.75
39897;BME280;25567;48.276;14.242;2022-07-29T00:12:20;98252.69;;;20.06;81.91
39897;BME280;25567;48.276;14.242;2022-07-29T00:14:54;98253.13;;;20.13;82.04
39897;BME280;25567;48.276;14.242;2022-07-29T00:17:22;98258.22;;;20.15;83.34
39897;BME280;25567;48.276;14.242;2022-07-29T00:19:48;98255.59;;;20.10;83.72
39897;BME280;25567;48.276;14.242;2022-07-29T00:22:19;98257.25;;;19.92;84.35
39897;BME280;25567;48.276;14.242;2022-07-29T00:24:48;98248.31;;;19.96;84.34
39897;BME280;25567;48.276;14.242;2022-07-29T00:27:16;98254.56;;;19.92;84.09
39897;BME280;25567;48.276;14.242;2022-07-29T00:29:44;98242.00;;;19.87;84.50
39897;BME280;25567;48.276;14.242;2022-07-29T00:32:11;98242.44;;;19.75;85.63
39897;BME280;25567;48.276;14.242;2022-07-29T00:34:37;98249.28;;;19.67;85.30
39897;BME280;25567;48.276;14.242;2022-07-29T00:37:19;98246.88;;;19.66;85.92
39897;BME280;25567;48.276;14.242;2022-07-29T00:39:47;98247.75;;;19.61;86.13
39897;BME280;25567;48.276;14.242;2022-07-29T00:42:13;98257.50;;;19.57;85.32
39897;BME280;25567;48.276;14.242;2022-07-29T00:44:41;98255.63;;;19.58;86.33
39897;BME280;25567;48.276;14.242;2022-07-29T00:47:09;98261.00;;;19.58;85.95
39897;BME280;25567;48.276;14.242;2022-07-29T00:49:38;98257.28;;;19.54;85.67
39897;BME280;25567;48.276;14.242;2022-07-29T00:52:06;98253.44;;;19.41;86.74
39897;BME280;25567;48.276;14.242;2022-07-29T00:54:34;98256.78;;;19.32;87.68
39897;BME280;25567;48.276;14.242;2022-07-29T00:57:10;98256.88;;;19.27;88.01
39897;BME280;25567;48.276;14.242;2022-07-29T00:59:37;98248.78;;;19.27;87.38
39897;BME280;25567;48.276;14.242;2022-07-29T01:02:04;98255.78;;;19.28;87.39
39897;BME280;25567;48.276;14.242;2022-07-29T01:04:31;98258.97;;;19.30;87.94
39897;BME280;25567;48.276;14.242;2022-07-29T01:07:01;98256.28;;;19.30;86.93
39897;BME280;25567;48.276;14.242;2022-07-29T01:09:28;98265.59;;;19.19;87.20
39897;BME280;25567;48.276;14.242;2022-07-29T01:12:18;98267.38;;;19.05;87.66
39897;BME280;25567;48.276;14.242;2022-07-29T01:14:48;98267.22;;;19.15;88.57
39897;BME280;25567;48.276;14.242;2022-07-29T01:17:22;98274.84;;;19.08;87.99
39897;BME280;25567;48.276;14.242;2022-07-29T01:30:40;98281.59;;;18.81;89.46
39897;BME280;25567;48.276;14.242;2022-07-29T01:33:11;98284.78;;;18.83;90.06
39897;BME280;25567;48.276;14.242;2022-07-29T01:36:02;98287.28;;;18.79;90.78
39897;BME280;25567;48.276;14.242;2022-07-29T01:38:32;98284.59;;;18.79;91.02
39897;BME280;25567;48.276;14.242;2022-07-29T01:41:12;98276.25;;;18.81;90.83
39897;BME280;25567;48.276;14.242;2022-07-29T01:43:44;98269.69;;;18.87;89.59
39897;BME280;25567;48.276;14.242;2022-07-29T01:46:21;98280.41;;;18.92;89.19
39897;BME280;25567;48.276;14.242;2022-07-29T01:48:56;98276.19;;;18.86;89.36
39897;BME280;25567;48.276;14.242;2022-07-29T01:51:32;98278.31;;;18.89;89.67
39897;BME280;25567;48.276;14.242;2022-07-29T01:56:45;98277.03;;;18.81;90.95
39897;BME280;25567;48.276;14.242;2022-07-29T01:59:15;98285.00;;;18.67;91.35
39897;BME280;25567;48.276;14.242;2022-07-29T02:01:44;98282.66;;;18.61;92.73
39897;BME280;25567;48.276;14.242;2022-07-29T02:04:12;98276.47;;;18.60;93.10
39897;BME280;25567;48.276;14.242;2022-07-29T02:06:58;98275.28;;;18.72;91.86
39897;BME280;25567;48.276;14.242;2022-07-29T02:09:29;98274.63;;;18.80;91.56
39897;BME280;25567;48.276;14.242;2022-07-29T02:11:58;98286.41;;;18.84;91.48
39897;BME280;25567;48.276;14.242;2022-07-29T02:14:29;98284.47;;;18.90;91.24
39897;BME280;25567;48.276;14.242;2022-07-29T02:16:58;98276.44;;;18.84;90.40
39897;BME280;25567;48.276;14.242;2022-07-29T02:19:28;98284.50;;;18.84;90.64
39897;BME280;25567;48.276;14.242;2022-07-29T02:21:56;98279.09;;;18.90;90.91
39897;BME280;25567;48.276;14.242;2022-07-29T02:24:24;98279.63;;;18.92;91.45
39897;BME280;25567;48.276;14.242;2022-07-29T02:26:54;98281.25;;;18.88;90.77
39897;BME280;25567;48.276;14.242;2022-07-29T02:29:23;98278.53;;;18.93;91.49
39897;BME280;25567;48.276;14.242;2022-07-29T02:31:52;98271.81;;;18.95;91.02
39897;BME280;25567;48.276;14.242;2022-07-29T02:34:21;98265.41;;;18.91;94.26
39897;BME280;25567;48.276;14.242;2022-07-29T02:36:49;98267.31;;;18.86;93.52
39897;BME280;25567;48.276;14.242;2022-07-29T02:39:17;98275.75;;;18.74;94.58
39897;BME280;25567;48.276;14.242;2022-07-29T02:41:48;98264.19;;;18.78;94.46
39897;BME280;25567;48.276;14.242;2022-07-29T02:44:19;98261.44;;;18.83;94.51
39897;BME280;25567;48.276;14.242;2022-07-29T02:46:50;98267.56;;;18.89;94.32
39897;BME280;25567;48.276;14.242;2022-07-29T02:49:32;98269.38;;;18.94;93.69
39897;BME280;25567;48.276;14.242;2022-07-29T02:52:04;98266.97;;;18.92;93.27
39897;BME280;25567;48.276;14.242;2022-07-29T02:54:47;98269.38;;;18.94;94.38
39897;BME280;25567;48.276;14.242;2022-07-29T02:57:22;98268.59;;;18.93;94.84
39897;BME280;25567;48.276;14.242;2022-07-29T02:59:57;98269.16;;;18.90;94.20
39897;BME280;25567;48.276;14.242;2022-07-29T03:02:26;98269.03;;;18.76;96.05
39897;BME280;25567;48.276;14.242;2022-07-29T03:04:57;98267.16;;;18.77;95.26
39897;BME280;25567;48.276;14.242;2022-07-29T03:07:26;98274.78;;;18.64;96.38
39897;BME280;25567;48.276;14.242;2022-07-29T03:09:54;98277.31;;;18.56;97.07
39897;BME280;25567;48.276;14.242;2022-07-29T03:12:22;98276.31;;;18.52;97.27
39897;BME280;25567;48.276;14.242;2022-07-29T03:14:49;98272.69;;;18.61;97.34
39897;BME280;25567;48.276;14.242;2022-07-29T03:17:16;98269.13;;;18.66;96.37
39897;BME280;25567;48.276;14.242;2022-07-29T03:19:43;98264.28;;;18.68;96.63
39897;BME280;25567;48.276;14.242;2022-07-29T03:22:10;98267.25;;;18.66;96.55
39897;BME280;25567;48.276;14.242;2022-07-29T03:24:37;98267.25;;;18.66;97.81
39897;BME280;25567;48.276;14.242;2022-07-29T03:27:05;98266.97;;;18.68;98.15
39897;BME280;25567;48.276;14.242;2022-07-29T03:29:32;98270.75;;;18.67;98.27
39897;BME280;25567;48.276;14.242;2022-07-29T03:32:03;98267.25;;;18.66;97.79
39897;BME280;25567;48.276;14.242;2022-07-29T03:34:33;98267.75;;;18.68;97.17
39897;BME280;25567;48.276;14.242;2022-07-29T03:37:00;98263.50;;;18.67;97.29
39897;BME280;25567;48.276;14.242;2022-07-29T03:39:29;98262.19;;;18.65;97.68
39897;BME280;25567;48.276;14.242;2022-07-29T03:41:59;98268.41;;;18.60;97.80
39897;BME280;25567;48.276;14.242;2022-07-29T03:44:27;98269.47;;;18.59;97.86
39897;BME280;25567;48.276;14.242;2022-07-29T03:46:57;98270.06;;;18.56;98.16
39897;BME280;25567;48.276;14.242;2022-07-29T03:49:26;98272.25;;;18.54;97.90
39897;BME280;25567;48.276;14.242;2022-07-29T03:51:54;98272.63;;;18.42;97.94
39897;BME280;25567;48.276;14.242;2022-07-29T03:54:22;98274.59;;;18.31;99.06
39897;BME280;25567;48.276;14.242;2022-07-29T03:56:50;98277.41;;;18.21;100.00
39897;BME280;25567;48.276;14.242;2022-07-29T03:59:19;98270.34;;;18.30;100.00
39897;BME280;25567;48.276;14.242;2022-07-29T04:01:48;98272.69;;;18.37;98.08
39897;BME280;25567;48.276;14.242;2022-07-29T04:04:15;98274.78;;;18.40;96.42
39897;BME280;25567;48.276;14.242;2022-07-29T04:06:45;98265.41;;;18.38;97.51
39897;BME280;25567;48.276;14.242;2022-07-29T04:09:13;98274.28;;;18.38;97.66
39897;BME280;25567;48.276;14.242;2022-07-29T04:11:41;98275.91;;;18.34;98.89
39897;BME280;25567;48.276;14.242;2022-07-29T04:14:28;98274.38;;;18.28;99.86
39897;BME280;25567;48.276;14.242;2022-07-29T04:16:55;98279.66;;;18.38;99.48
39897;BME280;25567;48.276;14.242;2022-07-29T04:19:21;98277.72;;;18.44;99.30
39897;BME280;25567;48.276;14.242;2022-07-29T04:21:49;98278.22;;;18.46;99.20
39897;BME280;25567;48.276;14.242;2022-07-29T04:24:19;98276.56;;;18.50;99.54
39897;BME280;25567;48.276;14.242;2022-07-29T04:26:46;98278.69;;;18.53;99.97
39897;BME280;25567;48.276;14.242;2022-07-29T04:29:14;98283.78;;;18.55;100.00
39897;BME280;25567;48.276;14.242;2022-07-29T04:31:41;98289.16;;;18.55;98.42
39897;BME280;25567;48.276;14.242;2022-07-29T04:34:08;98286.47;;;18.55;96.66
39897;BME280;25567;48.276;14.242;2022-07-29T04:36:35;98288.84;;;18.56;96.03
39897;BME280;25567;48.276;14.242;2022-07-29T04:39:03;98286.41;;;18.60;97.47
39897;BME280;25567;48.276;14.242;2022-07-29T04:41:30;98295.50;;;18.64;100.00
39897;BME280;25567;48.276;14.242;2022-07-29T04:43:59;98293.88;;;18.63;97.13
39897;BME280;25567;48.276;14.242;2022-07-29T04:46:33;98293.59;;;18.64;95.91
39897;BME280;25567;48.276;14.242;2022-07-29T04:48:59;98294.97;;;18.62;94.70
39897;BME280;25567;48.276;14.242;2022-07-29T04:51:27;98299.22;;;18.68;94.96
39897;BME280;25567;48.276;14.242;2022-07-29T04:53:54;98306.97;;;18.70;94.07
39897;BME280;25567;48.276;14.242;2022-07-29T04:56:20;98314.75;;;18.71;94.23
39897;BME280;25567;48.276;14.242;2022-07-29T04:58:47;98315.03;;;18.70;93.53
39897;BME280;25567;48.276;14.242;2022-07-29T05:01:14;98304.81;;;18.72;93.17
39897;BME280;25567;48.276;14.242;2022-07-29T05:03:41;98312.34;;;18.70;92.56
39897;BME280;25567;48.276;14.242;2022-07-29T05:06:07;98315.56;;;18.72;97.36
39897;BME280;25567;48.276;14.242;2022-07-29T05:08:34;98314.25;;;18.69;94.92
39897;BME280;25567;48.276;14.242;2022-07-29T05:11:01;98313.66;;;18.72;93.75
39897;BME280;25567;48.276;14.242;2022-07-29T05:13:39;98306.69;;;18.71;93.08
39897;BME280;25567;48.276;14.242;2022-07-29T05:16:12;98316.34;;;18.72;93.25
39897;BME280;25567;48.276;14.242;2022-07-29T05:18:40;98304.81;;;18.72;92.52
39897;BME280;25567;48.276;14.242;2022-07-29T05:21:06;98317.09;;;18.78;93.66
39897;BME280;25567;48.276;14.242;2022-07-29T05:23:33;98317.63;;;18.80;93.75
39897;BME280;25567;48.276;14.242;2022-07-29T05:26:00;98317.84;;;18.83;93.99
39897;BME280;25567;48.276;14.242;2022-07-29T05:28:27;98311.09;;;18.86;93.62
39897;BME280;25567;48.276;14.242;2022-07-29T05:30:54;98314.84;;;18.90;93.23
39897;BME280;25567;48.276;14.242;2022-07-29T05:33:21;98307.81;;;18.94;92.79
39897;BME280;25567;48.276;14.242;2022-07-29T05:36:04;98307.53;;;18.96;90.96
39897;BME280;25567;48.276;14.242;2022-07-29T05:38:34;98301.38;;;18.95;89.65
39897;BME280;25567;48.276;14.242;2022-07-29T05:41:02;98312.59;;;18.97;89.42
39897;BME280;25567;48.276;14.242;2022-07-29T05:43:29;98316.13;;;18.98;89.20
39897;BME280;25567;48.276;14.242;2022-07-29T05:45:56;98309.16;;;19.16;91.72
39897;BME280;25567;48.276;14.242;2022-07-29T05:48:23;98310.47;;;19.19;93.79
39897;BME280;25567;48.276;14.242;2022-07-29T05:50:50;98316.66;;;19.19;94.11
39897;BME280;25567;48.276;14.242;2022-07-29T05:53:17;98299.34;;;19.25;95.29
39897;BME280;25567;48.276;14.242;2022-07-29T05:55:47;98293.41;;;19.28;96.28
39897;BME280;25567;48.276;14.242;2022-07-29T05:58:13;98295.47;;;19.37;93.83
39897;BME280;25567;48.276;14.242;2022-07-29T06:00:40;98295.38;;;19.42;94.63
39897;BME280;25567;48.276;14.242;2022-07-29T06:03:07;98306.72;;;19.39;94.57
39897;BME280;25567;48.276;14.242;2022-07-29T06:05:34;98301.84;;;19.41;94.08
39897;BME280;25567;48.276;14.242;2022-07-29T06:08:01;98294.97;;;19.54;92.95
39897;BME280;25567;48.276;14.242;2022-07-29T06:10:28;98299.91;;;19.65;90.74
39897;BME280;25567;48.276;14.242;2022-07-29T06:12:55;98302.00;;;19.69;91.02
39897;BME280;25567;48.276;14.242;2022-07-29T06:15:21;98297.09;;;19.71;91.64
39897;BME280;25567;48.276;14.242;2022-07-29T06:17:48;98303.53;;;19.75;90.83
39897;BME280;25567;48.276;14.242;2022-07-29T06:20:28;98296.53;;;19.74;88.85
39897;BME280;25567;48.276;14.242;2022-07-29T06:22:57;98301.91;;;19.74;90.00
39897;BME280;25567;48.276;14.242;2022-07-29T06:25:24;98310.19;;;19.77;89.58
39897;BME280;25567;48.276;14.242;2022-07-29T06:27:51;98314.47;;;19.78;87.71
39897;BME280;25567;48.276;14.242;2022-07-29T06:30:18;98312.84;;;19.82;87.78
39897;BME280;25567;48.276;14.242;2022-07-29T06:32:45;98313.34;;;19.85;87.61
39897;BME280;25567;48.276;14.242;2022-07-29T06:35:12;98308.47;;;19.87;87.85
39897;BME280;25567;48.276;14.242;2022-07-29T06:37:59;98315.16;;;19.89;87.13
39897;BME280;25567;48.276;14.242;2022-07-29T06:40:26;98327.44;;;19.95;87.40
39897;BME280;25567;48.276;14.242;2022-07-29T06:43:08;98327.66;;;19.99;88.07
39897;BME280;25567;48.276;14.242;2022-07-29T06:45:35;98329.59;;;20.12;86.41
39897;BME280;25567;48.276;14.242;2022-07-29T06:48:02;98323.91;;;20.14;85.76
39897;BME280;25567;48.276;14.242;2022-07-29T06:50:28;98338.75;;;20.11;85.46
39897;BME280;25567;48.276;14.242;2022-07-29T06:52:55;98335.78;;;20.13;86.15
39897;BME280;25567;48.276;14.242;2022-07-29T06:55:22;98324.44;;;20.16;87.76
39897;BME280;25567;48.276;14.242;2022-07-29T06:57:50;98328.69;;;20.17;85.95
39897;BME280;25567;48.276;14.242;2022-07-29T07:00:17;98328.44;;;20.19;84.94
39897;BME280;25567;48.276;14.242;2022-07-29T07:02:44;98327.53;;;20.23;82.96
39897;BME280;25567;48.276;14.242;2022-07-29T07:05:12;98329.94;;;20.25;83.73
39897;BME280;25567;48.276;14.242;2022-07-29T07:07:39;98331.84;;;20.24;83.13
39897;BME280;25567;48.276;14.242;2022-07-29T07:10:06;98331.00;;;20.24;82.86
39897;BME280;25567;48.276;14.242;2022-07-29T07:12:33;98336.69;;;20.22;82.06
39897;BME280;25567;48.276;14.242;2022-07-29T07:15:00;98334.53;;;20.24;81.67
39897;BME280;25567;48.276;14.242;2022-07-29T07:17:27;98335.44;;;20.33;82.28
39897;BME280;25567;48.276;14.242;2022-07-29T07:19:53;98340.53;;;20.35;83.34
39897;BME280;25567;48.276;14.242;2022-07-29T07:22:20;98336.03;;;20.30;83.69
39897;BME280;25567;48.276;14.242;2022-07-29T07:24:47;98338.94;;;20.34;81.24
39897;BME280;25567;48.276;14.242;2022-07-29T07:27:14;98343.09;;;20.26;85.50
39897;BME280;25567;48.276;14.242;2022-07-29T07:29:40;98344.78;;;20.22;84.03
39897;BME280;25567;48.276;14.242;2022-07-29T07:32:09;98342.59;;;20.24;84.47
39897;BME280;25567;48.276;14.242;2022-07-29T07:34:36;98339.09;;;20.24;85.19
39897;BME280;25567;48.276;14.242;2022-07-29T07:37:05;98339.41;;;20.22;86.21
39897;BME280;25567;48.276;14.242;2022-07-29T07:39:31;98339.69;;;20.21;86.40
39897;BME280;25567;48.276;14.242;2022-07-29T07:41:58;98334.09;;;20.17;86.02
39897;BME280;25567;48.276;14.242;2022-07-29T07:44:26;98335.69;;;20.18;85.29
39897;BME280;25567;48.276;14.242;2022-07-29T07:46:52;98332.50;;;20.16;84.26
39897;BME280;25567;48.276;14.242;2022-07-29T07:49:20;98333.81;;;20.19;84.95
39897;BME280;25567;48.276;14.242;2022-07-29T07:51:47;98334.81;;;20.23;84.87
39897;BME280;25567;48.276;14.242;2022-07-29T07:54:16;98338.59;;;20.22;82.24
39897;BME280;25567;48.276;14.242;2022-07-29T07:56:46;98336.41;;;20.24;79.21
39897;BME280;25567;48.276;14.242;2022-07-29T07:59:18;98343.38;;;20.25;78.62
39897;BME280;25567;48.276;14.242;2022-07-29T08:01:45;98340.69;;;20.25;78.44
39897;BME280;25567;48.276;14.242;2022-07-29T08:04:21;98340.41;;;20.26;79.94
39897;BME280;25567;48.276;14.242;2022-07-29T08:06:55;98346.63;;;20.41;79.28
39897;BME280;25567;48.276;14.242;2022-07-29T08:09:22;98340.00;;;20.33;78.80
39897;BME280;25567;48.276;14.242;2022-07-29T08:11:58;98335.44;;;20.33;79.97
39897;BME280;25567;48.276;14.242;2022-07-29T08:14:26;98342.44;;;20.35;83.16
39897;BME280;25567;48.276;14.242;2022-07-29T08:16:52;98345.13;;;20.35;81.60
39897;BME280;25567;48.276;14.242;2022-07-29T08:19:20;98342.31;;;20.40;80.22
39897;BME280;25567;48.276;14.242;2022-07-29T08:21:46;98349.13;;;20.37;81.56
39897;BME280;25567;48.276;14.242;2022-07-29T08:24:14;98346.44;;;20.37;82.71
39897;BME280;25567;48.276;14.242;2022-07-29T08:26:59;98348.91;;;20.33;80.41
39897;BME280;25567;48.276;14.242;2022-07-29T08:29:26;98354.31;;;20.33;79.00
39897;BME280;25567;48.276;14.242;2022-07-29T08:31:52;98352.41;;;20.34;79.16
39897;BME280;25567;48.276;14.242;2022-07-29T08:34:19;98348.00;;;20.38;81.18
39897;BME280;25567;48.276;14.242;2022-07-29T08:36:54;98356.91;;;20.39;84.17
39897;BME280;25567;48.276;14.242;2022-07-29T08:39:21;98353.69;;;20.37;83.18
39897;BME280;25567;48.276;14.242;2022-07-29T08:41:49;98354.22;;;20.39;80.75
39897;BME280;25567;48.276;14.242;2022-07-29T08:44:23;98346.84;;;20.44;80.00
39897;BME280;25567;48.276;14.242;2022-07-29T08:46:56;98349.31;;;20.41;80.05
39897;BME280;25567;48.276;14.242;2022-07-29T08:49:23;98348.31;;;20.37;79.11
39897;BME280;25567;48.276;14.242;2022-07-29T08:51:51;98353.09;;;20.40;79.15
39897;BME280;25567;48.276;14.242;2022-07-29T08:54:22;98347.72;;;20.40;78.56
39897;BME280;25567;48.276;14.242;2022-07-29T08:56:50;98358.41;;;20.45;79.08
39897;BME280;25567;48.276;14.242;2022-07-29T08:59:22;98353.44;;;20.52;80.92
39897;BME280;25567;48.276;14.242;2022-07-29T09:01:52;98349.38;;;20.55;83.23
39897;BME280;25567;48.276;14.242;2022-07-29T09:04:22;98356.84;;;20.58;85.02
39897;BME280;25567;48.276;14.242;2022-07-29T09:06:51;98349.06;;;20.56;83.98
39897;BME280;25567;48.276;14.242;2022-07-29T09:09:20;98351.25;;;20.54;82.98
39897;BME280;25567;48.276;14.242;2022-07-29T09:11:47;98345.28;;;20.57;82.26
39897;BME280;25567;48.276;14.242;2022-07-29T09:14:14;98350.06;;;20.60;81.00
39897;BME280;25567;48.276;14.242;2022-07-29T09:16:52;98346.50;;;20.65;79.70
39897;BME280;25567;48.276;14.242;2022-07-29T09:19:29;98351.53;;;20.72;78.28
39897;BME280;25567;48.276;14.242;2022-07-29T09:21:59;98355.22;;;20.76;77.07
39897;BME280;25567;48.276;14.242;2022-07-29T09:24:38;98357.50;;;20.82;77.94
39897;BME280;25567;48.276;14.242;2022-07-29T09:27:09;98356.59;;;20.87;78.41
39897;BME280;25567;48.276;14.242;2022-07-29T09:29:36;98359.09;;;20.97;77.62
39897;BME280;25567;48.276;14.242;2022-07-29T09:32:06;98358.50;;;21.00;76.01
39897;BME280;25567;48.276;14.242;2022-07-29T09:34:34;98349.00;;;21.03;76.47
39897;BME280;25567;48.276;14.242;2022-07-29T09:37:02;98350.53;;;21.09;76.30
39897;BME280;25567;48.276;14.242;2022-07-29T09:39:31;98340.44;;;21.15;76.12
39897;BME280;25567;48.276;14.242;2022-07-29T09:42:00;98345.81;;;21.15;74.42
39897;BME280;25567;48.276;14.242;2022-07-29T09:47:08;98346.81;;;21.33;74.85
39897;BME280;25567;48.276;14.242;2022-07-29T09:49:51;98345.59;;;21.39;76.01
39897;BME280;25567;48.276;14.242;2022-07-29T09:52:19;98344.38;;;21.45;78.10
39897;BME280;25567;48.276;14.242;2022-07-29T09:54:46;98344.06;;;21.47;77.62
39897;BME280;25567;48.276;14.242;2022-07-29T09:57:28;98342.97;;;21.48;78.34
39897;BME280;25567;48.276;14.242;2022-07-29T10:02:30;98347.47;;;21.53;76.90
39897;BME280;25567;48.276;14.242;2022-07-29T10:04:58;98352.88;;;21.53;74.57
39897;BME280;25567;48.276;14.242;2022-07-29T10:07:26;98340.56;;;21.60;76.00
39897;BME280;25567;48.276;14.242;2022-07-29T10:10:09;98347.25;;;21.63;74.64
39897;BME280;25567;48.276;14.242;2022-07-29T10:12:50;98340.63;;;21.83;75.93
39897;BME280;25567;48.276;14.242;2022-07-29T10:15:17;98340.91;;;21.81;73.79
39897;BME280;25567;48.276;14.242;2022-07-29T10:17:45;98338.28;;;21.90;74.95
39897;BME280;25567;48.276;14.242;2022-07-29T10:20:11;98336.09;;;21.92;74.06
39897;BME280;25567;48.276;14.242;2022-07-29T10:22:41;98328.34;;;21.99;73.78
39897;BME280;25567;48.276;14.242;2022-07-29T10:25:20;98338.53;;;22.03;73.80
39897;BME280;25567;48.276;14.242;2022-07-29T10:27:47;98340.78;;;22.32;71.22
39897;BME280;25567;48.276;14.242;2022-07-29T10:30:16;98324.28;;;22.33;71.04
39897;BME280;25567;48.276;14.242;2022-07-29T10:38:44;98322.47;;;22.83;71.31
39897;BME280;25567;48.276;14.242;2022-07-29T10:41:57;98326.00;;;22.92;70.87
39897;BME280;25567;48.276;14.242;2022-07-29T10:44:17;98319.75;;;23.23;69.29
39897;BME280;25567;48.276;14.242;2022-07-29T10:46:50;98314.34;;;23.32;70.22
39897;BME280;25567;48.276;14.242;2022-07-29T10:49:18;98318.94;;;23.31;70.95
39897;BME280;25567;48.276;14.242;2022-07-29T10:52:06;98314.50;;;23.44;69.58
39897;BME280;25567;48.276;14.242;2022-07-29T10:59:44;98311.81;;;23.53;67.54
39897;BME280;25567;48.276;14.242;2022-07-29T11:02:40;98312.31;;;23.73;68.74
39897;BME280;25567;48.276;14.242;2022-07-29T11:05:14;98308.16;;;23.84;68.29
39897;BME280;25567;48.276;14.242;2022-07-29T11:10:47;98310.09;;;23.92;68.65
39897;BME280;25567;48.276;14.242;2022-07-29T11:16:14;98305.44;;;24.19;66.26
39897;BME280;25567;48.276;14.242;2022-07-29T11:21:42;98298.09;;;24.28;67.27
39897;BME280;25567;48.276;14.242;2022-07-29T11:24:26;98291.78;;;24.45;63.08
39897;BME280;25567;48.276;14.242;2022-07-29T11:27:17;98290.63;;;24.64;61.27
39897;BME280;25567;48.276;14.242;2022-07-29T11:29:56;98291.88;;;24.75;60.62
39897;BME280;25567;48.276;14.242;2022-07-29T11:32:36;98295.41;;;24.67;60.65
39897;BME280;25567;48.276;14.242;2022-07-29T11:35:21;98288.22;;;24.71;63.42
39897;BME280;25567;48.276;14.242;2022-07-29T11:38:28;98296.69;;;24.70;63.80
39897;BME280;25567;48.276;14.242;2022-07-29T11:46:41;98284.00;;;24.83;65.26
39897;BME280;25567;48.276;14.242;2022-07-29T11:49:05;98284.16;;;24.86;63.71
39897;BME280;25567;48.276;14.242;2022-07-29T11:51:37;98291.16;;;25.17;63.25
39897;BME280;25567;48.276;14.242;2022-07-29T11:54:14;98287.91;;;25.24;61.21
39897;BME280;25567;48.276;14.242;2022-07-29T11:56:53;98284.25;;;25.50;61.72
39897;BME280;25567;48.276;14.242;2022-07-29T11:59:20;98274.56;;;25.40;62.17
39897;BME280;25567;48.276;14.242;2022-07-29T12:01:59;98272.59;;;25.49;64.02
39897;BME280;25567;48.276;14.242;2022-07-29T12:04:56;98270.28;;;25.60;64.19
39897;BME280;25567;48.276;14.242;2022-07-29T12:07:32;98271.25;;;25.55;63.17
39897;BME280;25567;48.276;14.242;2022-07-29T12:10:02;98263.13;;;25.55;61.25
39897;BME280;25567;48.276;14.242;2022-07-29T12:12:32;98258.97;;;25.70;62.99
39897;BME280;25567;48.276;14.242;2022-07-29T12:15:10;98258.44;;;25.77;60.55
39897;BME280;25567;48.276;14.242;2022-07-29T12:17:38;98253.63;;;25.83;60.01
39897;BME280;25567;48.276;14.242;2022-07-29T12:20:05;98246.63;;;25.94;59.81
39897;BME280;25567;48.276;14.242;2022-07-29T12:22:37;98241.31;;;25.97;59.48
39897;BME280;25567;48.276;14.242;2022-07-29T12:25:08;98247.88;;;25.96;60.05
39897;BME280;25567;48.276;14.242;2022-07-29T12:28:01;98238.84;;;26.05;58.75
39897;BME280;25567;48.276;14.242;2022-07-29T12:30:45;98231.31;;;26.10;60.10
39897;BME280;25567;48.276;14.242;2022-07-29T12:35:43;98227.34;;;26.33;56.61
39897;BME280;25567;48.276;14.242;2022-07-29T12:38:20;98219.22;;;26.57;58.71
39897;BME280;25567;48.276;14.242;2022-07-29T12:40:48;98217.19;;;26.54;61.28
39897;BME280;25567;48.276;14.242;2022-07-29T12:43:17;98214.81;;;26.53;58.40
39897;BME280;25567;48.276;14.242;2022-07-29T12:45:47;98209.94;;;26.46;56.64
39897;BME280;25567;48.276;14.242;2022-07-29T12:48:15;98206.38;;;26.58;55.90
39897;BME280;25567;48.276;14.242;2022-07-29T12:53:26;98196.22;;;26.79;55.54
39897;BME280;25567;48.276;14.242;2022-07-29T12:56:15;98199.03;;;26.71;56.12
39897;BME280;25567;48.276;14.242;2022-07-29T12:59:45;98200.38;;;26.89;55.13
39897;BME280;25567;48.276;14.242;2022-07-29T13:02:40;98196.72;;;26.97;52.00
39897;BME280;25567;48.276;14.242;2022-07-29T13:05:57;98187.44;;;26.99;57.03
39897;BME280;25567;48.276;14.242;2022-07-29T13:09:09;98188.56;;;26.97;54.18
39897;BME280;25567;48.276;14.242;2022-07-29T13:12:37;98189.63;;;26.93;54.06
39897;BME280;25567;48.276;14.242;2022-07-29T13:16:06;98188.69;;;27.01;54.74
39897;BME280;25567;48.276;14.242;2022-07-29T13:19:11;98192.22;;;26.89;53.49
39897;BME280;25567;48.276;14.242;2022-07-29T13:22:28;98196.53;;;26.90;52.06
39897;BME280;25567;48.276;14.242;2022-07-29T13:25:31;98192.44;;;26.84;55.15
39897;BME280;25567;48.276;14.242;2022-07-29T13:28:50;98191.13;;;27.19;52.25
39897;BME280;25567;48.276;14.242;2022-07-29T13:31:43;98191.44;;;27.29;52.14
39897;BME280;25567;48.276;14.242;2022-07-29T13:35:03;98187.56;;;27.30;46.47
39897;BME280;25567;48.276;14.242;2022-07-29T13:38:07;98187.56;;;27.30;49.85
39897;BME280;25567;48.276;14.242;2022-07-29T13:41:30;98185.66;;;27.31;49.65
39897;BME280;25567;48.276;14.242;2022-07-29T13:44:24;98191.63;;;27.37;49.71
39897;BME280;25567;48.276;14.242;2022-07-29T13:47:41;98179.41;;;27.43;50.63
39897;BME280;25567;48.276;14.242;2022-07-29T13:50:44;98176.53;;;27.68;47.56
39897;BME280;25567;48.276;14.242;2022-07-29T13:53:51;98169.84;;;27.65;49.56
39897;BME280;25567;48.276;14.242;2022-07-29T13:56:54;98164.31;;;27.61;49.42
39897;BME280;25567;48.276;14.242;2022-07-29T14:00:01;98157.53;;;27.55;49.83
39897;BME280;25567;48.276;14.242;2022-07-29T14:03:04;98140.56;;;27.46;50.25
39897;BME280;25567;48.276;14.242;2022-07-29T14:06:21;98138.47;;;27.55;50.21
39897;BME280;25567;48.276;14.242;2022-07-29T14:09:24;98128.47;;;27.59;48.80
39897;BME280;25567;48.276;14.242;2022-07-29T14:12:41;98129.78;;;27.66;49.18
39897;BME280;25567;48.276;14.242;2022-07-29T14:15:44;98130.47;;;27.78;48.42